Weather observations for the past three days for
Georgetown County Airport
Imperial (Metric)
Date Time (edt) Wind (mph) Vis. (mi.) Weather Sky Cond. Temperature (ºF) Relative Humidity Wind Chill (°F) Heat Index (°F) Pressure Precipitation (in)
Air Dwpt 6 hour altimeter (in) sea level (mb) 1 hr 3 hr 6 hr
Max. Min.
09 10:35 SE 3 10.00 Overcast SCT016 BKN022 OVC090 73.4 68 83% 29.94 0.0
09 10:15 Calm 10.00 Overcast BKN018 OVC100 71.6 66.2 83% 29.94 0.0
09 09:55 Calm 10.00 Overcast BKN018 OVC110 71.6 66.2 83% 29.93 0.0
09 09:15 Calm 10.00 Overcast SCT014 SCT025 OVC110 68 64.4 88% 29.94 0.0
09 08:55 Calm 10.00 Overcast SCT014 SCT029 OVC110 68 64.4 88% 29.94 0.0
09 08:35 Calm 10.00 Overcast SCT018 SCT031 OVC120 68 64.4 88% 29.94 0.0
09 08:15 Calm 10.00 Overcast SCT018 OVC110 66.2 64.4 94% 29.94 0.0
09 07:55 Calm 10.00 Overcast OVC110 64.4 64.4 100% 29.94 0.0
09 07:35 Calm 10.00 Mostly Cloudy BKN120 62.6 60.8 94% 29.93 0.0
09 07:15 Calm 10.00 Fair CLR 60.8 60.8 100% 29.93 0.0
09 06:55 Calm 10.00 Partly Cloudy SCT022 SCT120 60.8 60.8 100% 29.92 0.0
09 06:35 Calm 10.00 Mostly Cloudy BKN022 BKN028 BKN120 60.8 60.8 100% 29.93 0.0
09 06:15 Calm 10.00 Overcast SCT024 OVC030 60.8 59 94% 29.92 0.0
09 05:35 Calm 10.00 Partly Cloudy SCT035 59 59 100% 29.93 0.0
09 05:15 Calm 10.00 Fair CLR 60.8 59 94% 29.93 0.0
09 04:55 Calm 10.00 Partly Cloudy SCT110 60.8 59 94% 29.92 0.0
09 04:35 Calm 10.00 Mostly Cloudy BKN110 60.8 59 94% 29.92 0.0
09 04:15 Calm 10.00 Partly Cloudy SCT110 60.8 59 94% 29.92 0.0
09 03:55 Calm 10.00 Partly Cloudy SCT028 SCT035 60.8 60.8 100% 29.93 0.0
09 03:35 Calm 10.00 Mostly Cloudy SCT035 BKN110 60.8 60.8 100% 29.94 0.0
09 03:15 E 3 10.00 Overcast SCT036 SCT046 OVC110 60.8 59 94% 29.94 0.0
09 02:55 Calm 10.00 Overcast OVC036 60.8 60.8 100% 29.96 0.0
09 02:35 Calm 10.00 Mostly Cloudy BKN036 59 59 100% 29.96 0.0
09 02:15 Calm 10.00 Partly Cloudy SCT040 59 59 100% 29.96 0.0
09 01:55 Calm 10.00 Partly Cloudy SCT040 SCT120 60.8 59 94% 29.97 0.0
09 01:35 Calm 10.00 Mostly Cloudy BKN120 60.8 59 94% 29.98 0.0
09 01:15 Calm 10.00 Overcast OVC110 59 59 100% 30 0.0
09 00:55 Calm 10.00 Partly Cloudy SCT120 59 59 100% 30 0.0
09 00:35 Calm 10.00 Fair CLR 59 59 100% 30.01 0.0
09 00:15 Calm 10.00 Fair CLR 60.8 59 94% 30.01 0.0
08 23:55 Calm 10.00 Fair CLR 59 59 100% 30 0.0
08 23:35 Calm 10.00 Fair CLR 59 59 100% 30.01 0.0
08 23:15 Calm 10.00 Fair CLR 60.8 59 94% 30.01 0.0
08 22:55 Calm 10.00 Fair CLR 59 59 100% 30.01 0.0
08 22:35 Calm 10.00 Fair CLR 60.8 59 94% 30.02 0.0
08 22:15 Calm 10.00 Fair CLR 60.8 59 94% 30.01 0.0
08 21:55 Calm 10.00 Fair CLR 60.8 59 94% 30.01 0.0
08 21:35 Calm 10.00 Fair CLR 60.8 57.2 88% 30.01 0.0
08 21:15 Calm 10.00 Fair CLR 60.8 57.2 88% 30 0.0
08 20:55 Calm 10.00 Fair CLR 60.8 57.2 88% 29.99 0.0
08 20:35 Calm 10.00 Fair CLR 60.8 55.4 83% 30 0.0
08 20:15 Calm 10.00 Fair CLR 60.8 55.4 83% 29.99 0.0
08 19:55 E 5 10.00 Fair CLR 62.6 53.6 73% 29.99 0.0
08 19:35 E 5 10.00 Fair CLR 62.6 53.6 73% 29.99 0.0
08 19:15 SE 3 10.00 Fair CLR 62.6 53.6 73% 29.99 0.0
08 18:55 E 5 10.00 Fair CLR 62.6 53.6 73% 29.99 0.0
08 18:35 SE 5 10.00 Fair CLR 64.4 53.6 68% 29.99 0.0
08 18:15 SE 7 10.00 Fair CLR 64.4 51.8 64% 29.99 0.0
08 17:55 SE 8 10.00 Fair CLR 64.4 51.8 64% 29.99 0.0
08 17:35 SE 8 10.00 Fair CLR 64.4 51.8 64% 29.99 0.0
08 17:15 SE 10 10.00 Fair CLR 64.4 53.6 68% 29.99 0.0
08 16:55 SE 12 10.00 Fair CLR 68 55.4 64% 29.99 0.0
08 16:35 SE 10 10.00 Fair CLR 68 55.4 64% 29.99 0.0
08 16:15 E 10 10.00 Fair CLR 64.4 53.6 68% 30 0.0
08 15:55 SE 12 10.00 Fair CLR 66.2 53.6 64% 30.01 0.0
08 15:35 E 12 10.00 Fair CLR 66.2 53.6 64% 30 0.0
08 15:15 SE 12 10.00 Fair CLR 68 53.6 60% 30.01 0.0
08 14:55 SE 10 10.00 Fair CLR 68 51.8 56% 30.02 0.0
08 14:35 SE 13 G 17 10.00 Fair CLR 68 51.8 56% 30.02 0.0
08 14:15 SE 14 10.00 Fair CLR 69.8 51.8 53% 30.02 0.0
08 13:55 SE 10 10.00 Fair CLR 69.8 51.8 53% 30.03 0.0
08 13:35 SE 12 10.00 Fair CLR 69.8 50 50% 30.03 0.0
08 13:15 SE 12 10.00 Fair CLR 71.6 50 47% 30.03 0.0
08 12:55 E 8 10.00 Fair CLR 69.8 50 50% 30.04 0.0
08 12:35 E 7 10.00 Fair CLR 69.8 50 50% 30.04 0.0
08 12:15 NE 3 10.00 Fair CLR 69.8 46.4 43% 30.05 0.0
08 11:55 E 7 10.00 Fair CLR 69.8 46.4 43% 30.06 0.0
08 11:35 NE 9 10.00 Fair CLR 68 46.4 46% 30.06 0.0
08 11:15 NE 9 G 16 10.00 Fair CLR 68 48.2 49% 30.06 0.0
08 10:55 NE 9 10.00 Fair CLR 68 48.2 49% 30.07 0.0
08 10:35 NE 7 10.00 Fair CLR 66.2 50 56% 30.06 0.0
08 10:15 N 10 10.00 Fair CLR 64.4 51.8 64% 30.05 0.0
08 09:55 NE 10 10.00 Fair CLR 62.6 51.8 68% 30.05 0.0
08 09:35 NE 9 10.00 Fair CLR 62.6 51.8 68% 30.04 0.0
08 09:15 NE 9 10.00 Fair CLR 60.8 53.6 77% 30.04 0.0
08 08:55 NE 7 10.00 Fair CLR 59 53.6 82% 30.04 0.0
08 08:35 N 7 10.00 Fair CLR 55.4 53.6 94% 30.03 0.0
08 08:15 N 3 10.00 Fair CLR 55.4 55.4 100% 30.03 0.0
08 07:55 N 6 10.00 Fair CLR 55.4 53.6 94% 30.01 0.0
08 07:35 N 6 10.00 Fair CLR 55.4 53.6 94% 30.01 0.0
08 07:15 N 6 10.00 Fair CLR 53.6 53.6 100% 30 0.0
08 06:55 N 6 10.00 Fair CLR 53.6 53.6 100% 29.99 0.0
08 06:35 N 7 10.00 Fair CLR 53.6 53.6 100% 29.98 0.0
08 06:15 N 6 10.00 Fair CLR 53.6 53.6 100% 29.98 0.0
08 05:55 N 6 10.00 Fair CLR 53.6 53.6 100% 29.97 0.0
08 05:35 N 6 10.00 Fair CLR 53.6 53.6 100% 29.96 0.0
08 05:15 N 5 10.00 Fair CLR 53.6 53.6 100% 29.96 0.0
08 04:55 N 3 10.00 Fair CLR 55.4 53.6 94% 29.96 0.0
08 04:35 N 3 10.00 Fair CLR 55.4 55.4 100% 29.96 0.0
08 04:15 N 5 10.00 Fair CLR 55.4 55.4 100% 29.94 0.0
08 03:55 N 3 10.00 Fair CLR 55.4 55.4 100% 29.94 0.0
08 03:35 Calm 10.00 Fair CLR 55.4 55.4 100% 29.94 0.0
08 03:15 Calm 10.00 Fair CLR 55.4 55.4 100% 29.94 0.0
08 02:55 N 3 10.00 Partly Cloudy SCT037 55.4 55.4 100% 29.94 0.0
08 02:35 N 3 10.00 Partly Cloudy SCT037 59 55.4 88% 29.93 0.0
08 02:15 N 5 10.00 Fair CLR 59 55.4 88% 29.93 0.0
08 01:55 N 5 10.00 Fair CLR 59 55.4 88% 29.92 0.0
08 01:35 N 7 10.00 Fair CLR 60.8 57.2 88% 29.92 0.0
08 01:15 N 10 10.00 Fair CLR 60.8 59 94% 29.91 0.0
08 00:55 N 12 G 23 10.00 Partly Cloudy SCT009 SCT018 SCT023 62.6 62.6 100% 29.9 0.0
08 00:35 N 16 G 21 10.00 Partly Cloudy SCT009 SCT023 SCT042 68 68 100% 29.89 0.0
08 00:15 W 7 10.00 Fair CLR 68 68 100% 29.87 0.0
07 23:55 W 8 10.00 Fair CLR 69.8 68 94% 29.87 0.0
07 23:35 W 7 10.00 Fair CLR 69.8 68 94% 29.86 0.0
07 23:15 W 6 10.00 Fair CLR 69.8 68 94% 29.86 0.0
07 22:55 W 7 10.00 Fair CLR 69.8 68 94% 29.85 0.0
07 22:35 W 7 10.00 Fair CLR 69.8 68 94% 29.84 0.0
07 22:15 W 8 10.00 Fair CLR 69.8 68 94% 29.83 0.0
07 21:55 W 8 10.00 Fair CLR 69.8 69.8 100% 29.83 0.0
07 21:35 W 6 10.00 Fair CLR 69.8 69.8 100% 29.83 0.0
07 21:15 SW 8 10.00 Fair CLR 69.8 69.8 100% 29.82 0.0
07 20:55 SW 8 10.00 Fair CLR 69.8 69.8 100% 29.81 0.0
07 20:35 SW 8 10.00 Fair CLR 71.6 69.8 94% 29.81 0.0
07 20:15 SW 9 10.00 Fair CLR 71.6 69.8 94% 29.8 0.0
07 19:55 SW 9 10.00 Fair CLR 71.6 69.8 94% 29.8 0.0
07 19:35 SW 10 10.00 Partly Cloudy SCT065 73.4 69.8 89% 29.8 0.0
07 19:15 W 8 G 16 10.00 Mostly Cloudy SCT020 SCT028 BKN065 73.4 69.8 89% 29.8 0.0
07 18:55 W 9 G 18 10.00 Overcast SCT018 BKN025 OVC031 73.4 69.8 89% 29.8 0.0
07 18:35 W 14 G 24 10.00 Mostly Cloudy BKN018 BKN026 73.4 69.8 89% 29.79 0.0
07 18:15 W 10 G 21 10.00 Partly Cloudy SCT016 73.4 69.8 89% 29.79 0.0
07 17:55 W 17 G 24 10.00 Mostly Cloudy BKN016 73.4 69.8 89% 29.79 0.0
07 17:35 SW 13 G 22 10.00 Mostly Cloudy BKN014 73.4 69.8 89% 29.79 0.0
07 17:15 SW 13 G 23 10.00 Partly Cloudy SCT014 SCT120 73.4 69.8 89% 29.8 0.0
07 16:55 SW 13 10.00 Partly Cloudy SCT110 71.6 69.8 94% 29.79 0.0
07 16:35 SW 8 10.00 Partly Cloudy SCT120 69.8 68 94% 29.8 0.0
07 16:15 SW 7 10.00 Mostly Cloudy SCT034 SCT055 BKN110 69.8 68 94% 29.81 0.0
07 15:55 W 6 7.00 Light Rain SCT043 BKN065 OVC110 68 68 100% 29.81 0.0 0.03
07 15:35 SW 6 10.00 Thunderstorm Light Rain SCT049 BKN080 OVC120 68 68 100% 29.81 0.0 0.01
07 15:15 W 8 10.00 Thunderstorm Rain in Vicinity SCT026 SCT047 BKN100 69.8 66.2 88% 29.83 0.0
07 14:55 SW 15 G 18 5.00 Light Rain SCT012 BKN050 OVC065 68 66.2 94% 29.83 0.0 0.07
07 14:35 W 9 10.00 Light Rain SCT029 SCT040 BKN065 73.4 62.6 69% 29.84 0.0
07 14:15 SW 3 10.00 Partly Cloudy SCT047 SCT110 75.2 62.6 65% 77 29.83 0.0
07 13:55 W 5 10.00 Partly Cloudy SCT110 75.2 62.6 65% 77 29.83 0.0
07 13:35 W 5 10.00 Partly Cloudy SCT100 75.2 62.6 65% 77 29.83 0.0
07 13:15 W 8 10.00 Partly Cloudy SCT120 73.4 60.8 65% 29.84 0.0
07 12:55 W 12 G 16 10.00 Light Rain SCT047 SCT070 OVC120 73.4 60.8 65% 29.84 0.0
07 12:35 SW 14 G 23 10.00 Light Rain SCT044 SCT050 SCT065 73.4 60.8 65% 29.81 0.0
07 12:15 SW 17 G 23 10.00 Partly Cloudy SCT033 SCT045 SCT060 73.4 62.6 69% 29.82 0.0
07 11:55 S 10 G 18 10.00 Light Rain SCT055 SCT080 BKN110 71.6 60.8 69% 29.84 0.0
07 11:35 SW 13 10.00 Partly Cloudy SCT110 73.4 60.8 65% 29.86 0.0
07 11:15 SW 8 G 17 10.00 Partly Cloudy SCT100 73.4 60.8 65% 29.85 0.0
07 10:55 SW 16 G 23 10.00 Mostly Cloudy SCT090 BKN110 73.4 62.6 69% 29.88 0.0
07 10:35 SW 14 G 18 10.00 Mostly Cloudy BKN090 BKN120 71.6 64.4 78% 29.89 0.0
07 10:15 SW 7 10.00 Partly Cloudy SCT120 73.4 68 83% 29.87 0.0
07 09:55 SW 3 10.00 Fair CLR 71.6 68 88% 29.86 0.0
07 09:35 S 3 10.00 Partly Cloudy SCT090 SCT120 71.6 68 88% 29.84 0.0
07 09:15 S 10 G 16 10.00 Mostly Cloudy SCT065 SCT095 BKN120 71.6 68 88% 29.82 0.0
07 08:55 S 3 10.00 Mostly Cloudy SCT090 BKN120 71.6 66.2 83% 29.87 0.0
07 08:35 S 7 10.00 Partly Cloudy SCT100 SCT120 71.6 66.2 83% 29.88 0.0
07 08:15 S 6 10.00 Partly Cloudy SCT100 SCT120 71.6 66.2 83% 29.9 0.0
07 07:55 S 6 10.00 Partly Cloudy SCT110 71.6 64.4 78% 29.9 0.0
07 07:35 SW 7 10.00 Light Rain SCT095 BKN110 71.6 64.4 78% 29.91 0.0
07 07:15 S 7 10.00 Partly Cloudy SCT085 SCT110 69.8 64.4 83% 29.87 0.0
07 06:55 SW 5 10.00 Overcast SCT085 OVC110 71.6 64.4 78% 29.91 0.0
07 06:35 SW 8 10.00 Light Rain BKN110 71.6 64.4 78% 29.93 0.0
07 06:15 SW 9 10.00 Partly Cloudy SCT110 71.6 64.4 78% 29.93 0.0
07 05:55 SW 8 10.00 Partly Cloudy SCT060 SCT080 SCT110 71.6 64.4 78% 29.91 0.0
07 05:35 SW 10 10.00 Light Rain SCT050 SCT075 BKN120 71.6 64.4 78% 29.91 0.0
07 05:15 SW 9 10.00 Mostly Cloudy SCT075 BKN090 BKN120 73.4 64.4 74% 29.9 0.0
07 04:55 SW 9 10.00 Partly Cloudy SCT085 SCT120 73.4 64.4 74% 29.89 0.0
07 04:35 SW 9 10.00 Mostly Cloudy SCT085 BKN120 73.4 64.4 74% 29.89 0.0
07 04:15 SW 7 10.00 Mostly Cloudy BKN085 BKN120 73.4 64.4 74% 29.9 0.0
07 03:55 SW 8 10.00 Partly Cloudy SCT070 SCT085 SCT120 73.4 66.2 78% 29.89 0.0
07 03:35 SW 14 10.00 Partly Cloudy SCT120 73.4 66.2 78% 29.89 0.0
07 03:15 S 9 10.00 Fair CLR 71.6 66.2 83% 29.89 0.0
07 02:55 SW 5 10.00 Partly Cloudy SCT085 SCT120 71.6 68 88% 29.9 0.0
07 02:35 Calm 10.00 Overcast BKN085 OVC110 71.6 68 88% 29.92 0.0
07 02:15 W 8 10.00 Mostly Cloudy SCT070 SCT085 BKN110 71.6 68 88% 29.94 0.0
07 01:55 SW 8 10.00 Partly Cloudy SCT120 71.6 68 88% 29.94 0.0
07 01:35 SW 10 10.00 Fair CLR 73.4 66.2 78% 29.94 0.0
07 01:15 SW 13 G 18 10.00 Fair CLR 73.4 66.2 78% 29.95 0.0
07 00:55 SW 10 10.00 Fair CLR 71.6 68 88% 29.95 0.0
07 00:35 SW 12 G 18 10.00 Fair CLR 71.6 68 88% 29.96 0.0
07 00:15 SW 10 10.00 Fair CLR 71.6 68 88% 29.96 0.0
06 23:55 SW 10 G 20 10.00 Fair CLR 71.6 68 88% 29.96 0.0
06 23:15 SW 9 10.00 Fair CLR 71.6 68 88% 29.93 0.0
06 22:55 S 9 10.00 Fair CLR 71.6 68 88% 29.93 0.0
06 22:35 S 9 10.00 Fair CLR 71.6 68 88% 29.94 0.0
06 22:15 S 9 10.00 Fair CLR 71.6 68 88% 29.95 0.0
06 21:55 S 8 10.00 Fair CLR 71.6 68 88% 29.96 0.0
06 21:35 S 9 10.00 Fair CLR 71.6 68 88% 29.96 0.0
06 21:15 SW 8 10.00 Fair CLR 71.6 66.2 83% 29.96 0.0
06 20:55 S 9 10.00 Fair CLR 71.6 66.2 83% 29.96 0.0
06 20:35 S 9 10.00 Fair CLR 71.6 66.2 83% 29.96 0.0
06 20:15 S 10 G 16 10.00 Fair CLR 71.6 64.4 78% 29.96 0.0
06 19:55 S 12 10.00 Fair CLR 71.6 64.4 78% 29.95 0.0
06 19:35 S 13 G 18 10.00 Fair CLR 73.4 62.6 69% 29.94 0.0
06 18:55 S 13 G 18 10.00 Fair CLR 75.2 60.8 61% 77 29.96 0.0
06 18:35 SW 16 G 23 10.00 Fair CLR 77 60.8 57% 79 29.95 0.0
06 18:15 S 16 G 24 10.00 Fair CLR 77 60.8 57% 79 29.95 0.0
06 17:35 S 12 G 22 10.00 Fair CLR 78.8 62.6 58% 80 29.95 0.0
06 17:15 SW 16 G 24 10.00 Fair CLR 80.6 60.8 51% 81 29.95 0.0
06 16:55 SW 15 G 24 10.00 Fair CLR 80.6 60.8 51% 81 29.95 0.0
06 16:35 S 13 G 21 10.00 Fair CLR 78.8 62.6 58% 80 29.95 0.0
06 16:15 S 13 G 22 10.00 Fair CLR 80.6 62.6 54% 82 29.96 0.0
06 15:55 S 13 10.00 Fair CLR 80.6 62.6 54% 82 29.96 0.0
06 15:35 S 10 G 16 10.00 Fair CLR 82.4 62.6 51% 83 29.96 0.0
06 15:15 S 10 G 17 10.00 Fair CLR 82.4 64.4 55% 84 29.98 0.0
06 14:55 S 12 7.00 Mostly Cloudy BKN050 80.6 64.4 58% 82 29.99 0.0
06 14:35 S 12 10.00 Partly Cloudy SCT050 SCT085 80.6 62.6 54% 82 30 0.0
06 14:15 S 8 10.00 Mostly Cloudy SCT050 BKN085 82.4 62.6 51% 83 30 0.0
06 13:55 S 7 10.00 Partly Cloudy SCT085 80.6 62.6 54% 82 30.02 0.0
06 13:35 SW 12 G 17 10.00 Fair CLR 80.6 62.6 54% 82 30.01 0.0
06 13:15 S 13 10.00 Partly Cloudy SCT044 80.6 62.6 54% 82 30.02 0.0
06 12:55 S 7 10.00 Fair CLR 80.6 60.8 51% 81 30.02 0.0
06 12:35 S 9 G 17 10.00 Fair CLR 80.6 60.8 51% 81 30.02 0.0
06 12:15 SW 9 10.00 Fair CLR 80.6 60.8 51% 81 30.03 0.0
06 11:55 S 10 G 16 10.00 Fair CLR 80.6 60.8 51% 81 30.04 0.0
06 11:35 SW 14 G 17 10.00 Fair CLR 78.8 60.8 54% 80 30.04 0.0
06 11:15 SW 9 10.00 Fair CLR 78.8 59 51% 80 30.04 0.0
06 10:55 S 12 10.00 Fair CLR 78.8 59 51% 80 30.04 0.0
Date Time (edt) Wind (mph) Vis. (mi.) Weather Sky Cond. Air Dwpt Max. Min. Relative Humidity Wind Chill (°F) Heat Index (°F) altimeter (in) sea level (mb) 1 hr 3 hr 6 hr
6 hour
Temperature (ºF) Pressure Precipitation (in)